首页
METAR-TAF:

METAR-TAF

机场 :

McGhee Tyson Airport

諾克斯維爾, 田纳西州, 美国

纬度: 35-49-05N, 经度: 083-59-09W, 海拔: 299米

当前天气观测

该预报发布于1小时和2分钟前的19:53 UTC
静风
温度 13°C
湿度 44%
气压 1021 hPa
能見度: 16.1公里
少量云层高于9500英尺
多云层高于18000英尺
多云层高于25000英尺

METAR: KTYS 131953Z 00000KT 10SM FEW095 BKN180 BKN250 13/01 A3016 RMK AO2 SLP211 T01330006

时间: 15:55 (20:55 UTC)

预报

该预报发布于3小时和33分钟前的17:22 UTC
预报有效从13日的 18点(UTC)到 14日的 18点(UTC)
风速5节,风向东北
能見度: 10公里
散云层高于15000英尺
多云层高于25000英尺
从 14日的 0900点(UTC)
风速6节,风向东北
能見度: 9.7公里
散云层高于4000英尺
阴天层高于10000英尺
小雨
从 14日的 1400点(UTC)
风速6节,风向东北
能見度: 9.7公里
散云层高于1500英尺
阴天层高于2500英尺
小雨, 轻雾
从 14日的 1600点(UTC)
风速5节,风向东北
能見度: 9.7公里
散云层高于700英尺
多云层高于1500英尺
小雨

TAF: KTYS 131722Z 1318/1418 05005KT P6SM SCT150 BKN250 FM140900 05006KT 6SM -RA SCT040 OVC100 FM141400 05006KT 6SM -RA BR SCT015 OVC025 FM141600 05005KT 6SM -RA SCT007 BKN015

超过4000个机场的气象观测和天气预报(METAR&TAF报告)。

可查询的气象台以黄色和红色小点在地图上表示。

将鼠标移到小点上方,可查看气象台名称。

然后点击查看天气观测和预报。

如需切换地图:点击带黑十字的绿色按钮放大地图;点击带横线的绿色按钮缩小地图;或者点击绿色箭头查看邻近地区的地图。


METAR-TAF: